sensor_id;sensor_type;location;lat;lon;timestamp;pressure;altitude;pressure_sealevel;temperature;humidity
20368;BME280;10343;52.402;9.796;2023-02-02T00:01:27;100865.31;;;8.74;94.61
20368;BME280;10343;52.402;9.796;2023-02-02T00:03:56;100881.50;;;8.46;91.09
20368;BME280;10343;52.402;9.796;2023-02-02T00:06:26;100865.69;;;8.45;92.76
20368;BME280;10343;52.402;9.796;2023-02-02T00:08:55;100867.69;;;8.20;91.59
20368;BME280;10343;52.402;9.796;2023-02-02T00:11:24;100877.69;;;8.72;91.39
20368;BME280;10343;52.402;9.796;2023-02-02T00:13:53;100871.53;;;8.70;91.73
20368;BME280;10343;52.402;9.796;2023-02-02T00:16:39;100875.84;;;8.77;88.93
20368;BME280;10343;52.402;9.796;2023-02-02T00:19:11;100879.56;;;8.61;90.56
20368;BME280;10343;52.402;9.796;2023-02-02T00:21:41;100886.31;;;8.87;91.39
20368;BME280;10343;52.402;9.796;2023-02-02T00:24:11;100873.19;;;8.80;91.73
20368;BME280;10343;52.402;9.796;2023-02-02T00:26:41;100886.28;;;8.09;91.22
20368;BME280;10343;52.402;9.796;2023-02-02T00:29:14;100871.25;;;8.93;93.16
20368;BME280;10343;52.402;9.796;2023-02-02T00:31:42;100878.41;;;8.85;89.48
20368;BME280;10343;52.402;9.796;2023-02-02T00:34:11;100878.34;;;8.91;89.62
20368;BME280;10343;52.402;9.796;2023-02-02T00:36:39;100877.41;;;8.95;88.47
20368;BME280;10343;52.402;9.796;2023-02-02T00:39:09;100887.25;;;8.82;89.64
20368;BME280;10343;52.402;9.796;2023-02-02T00:41:37;100887.34;;;8.73;89.18
20368;BME280;10343;52.402;9.796;2023-02-02T00:44:05;100885.19;;;9.08;89.39
20368;BME280;10343;52.402;9.796;2023-02-02T00:46:52;100898.66;;;8.86;87.46
20368;BME280;10343;52.402;9.796;2023-02-02T00:49:21;100890.84;;;8.77;87.26
20368;BME280;10343;52.402;9.796;2023-02-02T00:51:49;100892.91;;;8.53;87.33
20368;BME280;10343;52.402;9.796;2023-02-02T00:54:17;100895.44;;;8.59;88.19
20368;BME280;10343;52.402;9.796;2023-02-02T00:56:45;100903.31;;;8.65;87.22
20368;BME280;10343;52.402;9.796;2023-02-02T00:59:13;100896.50;;;8.47;88.65
20368;BME280;10343;52.402;9.796;2023-02-02T01:01:41;100891.19;;;8.49;88.18
20368;BME280;10343;52.402;9.796;2023-02-02T01:04:10;100895.44;;;8.61;87.01
20368;BME280;10343;52.402;9.796;2023-02-02T01:06:38;100904.56;;;9.07;89.15
20368;BME280;10343;52.402;9.796;2023-02-02T01:09:07;100902.59;;;8.53;86.20
20368;BME280;10343;52.402;9.796;2023-02-02T01:11:35;100917.66;;;8.46;88.06
20368;BME280;10343;52.402;9.796;2023-02-02T01:14:03;100905.72;;;8.84;88.11
20368;BME280;10343;52.402;9.796;2023-02-02T01:16:33;100912.47;;;8.33;85.02
20368;BME280;10343;52.402;9.796;2023-02-02T01:19:01;100913.84;;;8.69;87.00
20368;BME280;10343;52.402;9.796;2023-02-02T01:21:30;100911.53;;;8.38;86.92
20368;BME280;10343;52.402;9.796;2023-02-02T01:24:15;100923.88;;;8.34;85.78
20368;BME280;10343;52.402;9.796;2023-02-02T01:26:43;100904.09;;;8.75;86.96
20368;BME280;10343;52.402;9.796;2023-02-02T01:29:11;100895.34;;;8.70;85.03
20368;BME280;10343;52.402;9.796;2023-02-02T01:31:41;100914.97;;;8.43;84.23
20368;BME280;10343;52.402;9.796;2023-02-02T01:34:09;100903.38;;;8.62;87.41
20368;BME280;10343;52.402;9.796;2023-02-02T01:36:38;100911.50;;;8.41;85.01
20368;BME280;10343;52.402;9.796;2023-02-02T01:39:06;100934.91;;;7.81;85.18
20368;BME280;10343;52.402;9.796;2023-02-02T01:41:33;100911.69;;;8.24;86.43
20368;BME280;10343;52.402;9.796;2023-02-02T01:44:03;100926.81;;;8.05;84.32
20368;BME280;10343;52.402;9.796;2023-02-02T01:46:33;100919.50;;;8.31;86.42
20368;BME280;10343;52.402;9.796;2023-02-02T01:49:04;100934.97;;;8.72;87.05
20368;BME280;10343;52.402;9.796;2023-02-02T01:51:39;100935.44;;;8.25;86.55
20368;BME280;10343;52.402;9.796;2023-02-02T01:54:10;100936.66;;;8.77;84.99
20368;BME280;10343;52.402;9.796;2023-02-02T01:56:44;100944.03;;;8.43;83.61
20368;BME280;10343;52.402;9.796;2023-02-02T01:59:14;100946.13;;;8.11;85.02
20368;BME280;10343;52.402;9.796;2023-02-02T02:01:44;100947.25;;;8.76;85.88
20368;BME280;10343;52.402;9.796;2023-02-02T02:04:13;100958.13;;;8.48;84.62
20368;BME280;10343;52.402;9.796;2023-02-02T02:06:44;100951.88;;;8.57;84.91
20368;BME280;10343;52.402;9.796;2023-02-02T02:09:14;100948.56;;;8.31;84.30
20368;BME280;10343;52.402;9.796;2023-02-02T02:11:42;100950.75;;;8.78;85.85
20368;BME280;10343;52.402;9.796;2023-02-02T02:14:11;100953.63;;;8.58;86.33
20368;BME280;10343;52.402;9.796;2023-02-02T02:17:11;100954.56;;;8.52;82.26
20368;BME280;10343;52.402;9.796;2023-02-02T02:23:51;100954.75;;;8.27;83.85
20368;BME280;10343;52.402;9.796;2023-02-02T02:33:26;100979.41;;;8.26;87.30
20368;BME280;10343;52.402;9.796;2023-02-02T02:36:07;100990.72;;;8.50;83.87
20368;BME280;10343;52.402;9.796;2023-02-02T02:38:41;100988.41;;;8.07;81.10
20368;BME280;10343;52.402;9.796;2023-02-02T02:41:16;100988.38;;;8.13;85.33
20368;BME280;10343;52.402;9.796;2023-02-02T02:43:55;100990.09;;;8.17;83.56
20368;BME280;10343;52.402;9.796;2023-02-02T02:46:27;101002.66;;;7.86;83.86
20368;BME280;10343;52.402;9.796;2023-02-02T02:48:59;101006.16;;;7.89;85.95
20368;BME280;10343;52.402;9.796;2023-02-02T02:51:44;101002.53;;;7.99;85.76
20368;BME280;10343;52.402;9.796;2023-02-02T02:54:22;101006.16;;;7.89;85.92
20368;BME280;10343;52.402;9.796;2023-02-02T02:59:50;101003.44;;;7.97;87.28
20368;BME280;10343;52.402;9.796;2023-02-02T03:02:36;101005.03;;;8.20;85.34
20368;BME280;10343;52.402;9.796;2023-02-02T03:05:23;101014.56;;;8.34;84.74
20368;BME280;10343;52.402;9.796;2023-02-02T03:08:02;101032.38;;;8.11;84.55
20368;BME280;10343;52.402;9.796;2023-02-02T03:10:34;101026.97;;;8.26;83.79
20368;BME280;10343;52.402;9.796;2023-02-02T03:13:06;101014.69;;;8.22;84.03
20368;BME280;10343;52.402;9.796;2023-02-02T03:15:39;101019.84;;;8.34;84.73
20368;BME280;10343;52.402;9.796;2023-02-02T03:18:07;101009.38;;;8.22;88.50
20368;BME280;10343;52.402;9.796;2023-02-02T03:20:37;101018.41;;;7.92;86.27
20368;BME280;10343;52.402;9.796;2023-02-02T03:23:05;101024.50;;;8.02;84.92
20368;BME280;10343;52.402;9.796;2023-02-02T03:25:33;101021.97;;;7.92;87.63
20368;BME280;10343;52.402;9.796;2023-02-02T03:28:01;101009.34;;;8.30;87.94
20368;BME280;10343;52.402;9.796;2023-02-02T03:30:30;101014.97;;;7.85;86.42
20368;BME280;10343;52.402;9.796;2023-02-02T03:32:58;101010.25;;;8.26;87.49
20368;BME280;10343;52.402;9.796;2023-02-02T03:35:27;101019.22;;;8.06;87.94
20368;BME280;10343;52.402;9.796;2023-02-02T03:37:57;101018.09;;;8.37;86.79
20368;BME280;10343;52.402;9.796;2023-02-02T03:40:25;101021.59;;;8.42;85.72
20368;BME280;10343;52.402;9.796;2023-02-02T03:42:54;101024.69;;;7.80;85.96
20368;BME280;10343;52.402;9.796;2023-02-02T03:45:22;101031.25;;;8.41;87.09
20368;BME280;10343;52.402;9.796;2023-02-02T03:47:53;101027.88;;;8.25;86.86
20368;BME280;10343;52.402;9.796;2023-02-02T03:50:21;101028.69;;;8.33;86.73
20368;BME280;10343;52.402;9.796;2023-02-02T03:52:51;101037.72;;;8.05;85.72
20368;BME280;10343;52.402;9.796;2023-02-02T03:55:21;101035.97;;;7.97;87.58
20368;BME280;10343;52.402;9.796;2023-02-02T03:57:50;101051.16;;;7.64;89.19
20368;BME280;10343;52.402;9.796;2023-02-02T04:00:18;101039.47;;;8.03;88.90
20368;BME280;10343;52.402;9.796;2023-02-02T04:02:46;101050.88;;;8.11;89.16
20368;BME280;10343;52.402;9.796;2023-02-02T04:05:14;101039.66;;;7.75;90.33
20368;BME280;10343;52.402;9.796;2023-02-02T04:07:43;101060.03;;;7.46;91.60
20368;BME280;10343;52.402;9.796;2023-02-02T04:10:11;101059.94;;;7.67;92.96
20368;BME280;10343;52.402;9.796;2023-02-02T04:12:40;101067.72;;;7.91;91.04
20368;BME280;10343;52.402;9.796;2023-02-02T04:15:09;101066.69;;;8.14;93.40
20368;BME280;10343;52.402;9.796;2023-02-02T04:17:37;101064.09;;;8.08;90.55
20368;BME280;10343;52.402;9.796;2023-02-02T04:20:06;101067.78;;;7.85;92.16
20368;BME280;10343;52.402;9.796;2023-02-02T04:22:34;101069.69;;;7.55;94.93
20368;BME280;10343;52.402;9.796;2023-02-02T04:25:02;101062.72;;;7.39;95.70
20368;BME280;10343;52.402;9.796;2023-02-02T04:27:31;101072.97;;;7.94;96.09
20368;BME280;10343;52.402;9.796;2023-02-02T04:30:01;101069.47;;;7.92;95.46
20368;BME280;10343;52.402;9.796;2023-02-02T04:32:29;101072.06;;;8.00;94.28
20368;BME280;10343;52.402;9.796;2023-02-02T04:34:56;101056.28;;;7.88;95.64
20368;BME280;10343;52.402;9.796;2023-02-02T04:37:25;101073.00;;;7.91;95.41
20368;BME280;10343;52.402;9.796;2023-02-02T04:39:53;101073.13;;;7.70;97.54
20368;BME280;10343;52.402;9.796;2023-02-02T04:42:21;101062.50;;;7.79;96.95
20368;BME280;10343;52.402;9.796;2023-02-02T04:44:49;101068.47;;;8.12;95.45
20368;BME280;10343;52.402;9.796;2023-02-02T04:47:18;101070.06;;;8.34;95.77
20368;BME280;10343;52.402;9.796;2023-02-02T04:49:46;101079.16;;;7.90;95.20
20368;BME280;10343;52.402;9.796;2023-02-02T04:52:14;101082.00;;;7.50;96.69
20368;BME280;10343;52.402;9.796;2023-02-02T04:54:42;101072.16;;;7.89;96.74
20368;BME280;10343;52.402;9.796;2023-02-02T04:57:10;101073.75;;;8.12;96.57
20368;BME280;10343;52.402;9.796;2023-02-02T04:59:38;101074.81;;;7.81;95.27
20368;BME280;10343;52.402;9.796;2023-02-02T05:02:08;101075.66;;;7.91;97.50
20368;BME280;10343;52.402;9.796;2023-02-02T05:04:37;101078.25;;;7.94;96.50
20368;BME280;10343;52.402;9.796;2023-02-02T05:07:06;101081.88;;;7.78;96.67
20368;BME280;10343;52.402;9.796;2023-02-02T05:09:34;101076.63;;;7.72;97.79
20368;BME280;10343;52.402;9.796;2023-02-02T05:12:03;101083.66;;;7.76;97.98
20368;BME280;10343;52.402;9.796;2023-02-02T05:14:31;101080.97;;;7.87;96.46
20368;BME280;10343;52.402;9.796;2023-02-02T05:16:58;101089.91;;;7.56;94.48
20368;BME280;10343;52.402;9.796;2023-02-02T05:19:26;101083.53;;;7.96;94.92
20368;BME280;10343;52.402;9.796;2023-02-02T05:21:56;101079.16;;;7.89;94.42
20368;BME280;10343;52.402;9.796;2023-02-02T05:24:23;101087.13;;;7.86;94.92
20368;BME280;10343;52.402;9.796;2023-02-02T05:26:53;101084.50;;;7.76;95.69
20368;BME280;10343;52.402;9.796;2023-02-02T05:29:24;101089.63;;;8.06;94.33
20368;BME280;10343;52.402;9.796;2023-02-02T05:31:52;101100.28;;;7.95;93.88
20368;BME280;10343;52.402;9.796;2023-02-02T05:34:20;101103.13;;;7.47;96.54
20368;BME280;10343;52.402;9.796;2023-02-02T05:36:48;101101.22;;;7.81;94.95
20368;BME280;10343;52.402;9.796;2023-02-02T05:39:18;101105.75;;;7.52;95.03
20368;BME280;10343;52.402;9.796;2023-02-02T05:41:45;101095.31;;;7.13;98.11
20368;BME280;10343;52.402;9.796;2023-02-02T05:44:14;101117.13;;;7.61;97.52
20368;BME280;10343;52.402;9.796;2023-02-02T05:46:41;101116.16;;;7.87;95.50
20368;BME280;10343;52.402;9.796;2023-02-02T05:49:11;101117.13;;;7.69;95.34
20368;BME280;10343;52.402;9.796;2023-02-02T05:51:42;101115.25;;;7.91;94.93
20368;BME280;10343;52.402;9.796;2023-02-02T05:54:11;101116.09;;;7.93;93.60
20368;BME280;10343;52.402;9.796;2023-02-02T05:56:46;101124.25;;;7.38;96.75
20368;BME280;10343;52.402;9.796;2023-02-02T05:59:14;101122.31;;;7.89;94.94
20368;BME280;10343;52.402;9.796;2023-02-02T06:01:43;101119.59;;;8.03;93.50
20368;BME280;10343;52.402;9.796;2023-02-02T06:04:11;101135.47;;;7.95;93.94
20368;BME280;10343;52.402;9.796;2023-02-02T06:06:39;101139.97;;;7.72;93.16
20368;BME280;10343;52.402;9.796;2023-02-02T06:09:08;101136.34;;;7.94;92.91
20368;BME280;10343;52.402;9.796;2023-02-02T06:11:35;101142.47;;;8.01;92.94
20368;BME280;10343;52.402;9.796;2023-02-02T06:14:06;101136.41;;;7.85;93.89
20368;BME280;10343;52.402;9.796;2023-02-02T06:16:34;101138.03;;;8.09;93.04
20368;BME280;10343;52.402;9.796;2023-02-02T06:19:02;101140.66;;;8.15;92.22
20368;BME280;10343;52.402;9.796;2023-02-02T06:21:30;101146.69;;;8.31;91.15
20368;BME280;10343;52.402;9.796;2023-02-02T06:23:58;101146.63;;;8.47;90.12
20368;BME280;10343;52.402;9.796;2023-02-02T06:26:27;101157.38;;;8.16;90.91
20368;BME280;10343;52.402;9.796;2023-02-02T06:28:55;101161.78;;;8.17;91.64
20368;BME280;10343;52.402;9.796;2023-02-02T06:31:24;101160.88;;;8.15;91.86
20368;BME280;10343;52.402;9.796;2023-02-02T06:33:53;101165.13;;;8.45;90.00
20368;BME280;10343;52.402;9.796;2023-02-02T06:36:23;101168.66;;;8.46;90.31
20368;BME280;10343;52.402;9.796;2023-02-02T06:38:53;101175.81;;;8.24;90.98
20368;BME280;10343;52.402;9.796;2023-02-02T06:41:22;101175.84;;;8.18;92.12
20368;BME280;10343;52.402;9.796;2023-02-02T06:43:50;101173.22;;;8.16;92.65
20368;BME280;10343;52.402;9.796;2023-02-02T06:46:18;101181.13;;;8.18;92.25
20368;BME280;10343;52.402;9.796;2023-02-02T06:48:47;101185.34;;;8.51;91.28
20368;BME280;10343;52.402;9.796;2023-02-02T06:51:15;101172.19;;;8.39;92.12
20368;BME280;10343;52.402;9.796;2023-02-02T06:53:46;101168.63;;;8.52;90.79
20368;BME280;10343;52.402;9.796;2023-02-02T06:56:15;101165.22;;;8.27;91.96
20368;BME280;10343;52.402;9.796;2023-02-02T06:58:43;101173.00;;;8.56;91.40
20368;BME280;10343;52.402;9.796;2023-02-02T07:01:12;101176.63;;;8.30;94.00
20368;BME280;10343;52.402;9.796;2023-02-02T07:03:40;101178.28;;;8.56;92.21
20368;BME280;10343;52.402;9.796;2023-02-02T07:06:14;101181.81;;;8.58;92.26
20368;BME280;10343;52.402;9.796;2023-02-02T07:08:42;101181.06;;;8.30;93.51
20368;BME280;10343;52.402;9.796;2023-02-02T07:11:15;101174.78;;;8.51;94.65
20368;BME280;10343;52.402;9.796;2023-02-02T07:13:45;101191.31;;;8.82;91.84
20368;BME280;10343;52.402;9.796;2023-02-02T07:16:14;101194.88;;;8.75;93.21
20368;BME280;10343;52.402;9.796;2023-02-02T07:18:48;101194.03;;;8.72;93.33
20368;BME280;10343;52.402;9.796;2023-02-02T07:21:20;101197.50;;;8.83;92.47
20368;BME280;10343;52.402;9.796;2023-02-02T07:23:48;101197.47;;;8.80;93.25
20368;BME280;10343;52.402;9.796;2023-02-02T07:26:17;101209.91;;;8.69;91.80
20368;BME280;10343;52.402;9.796;2023-02-02T07:28:46;101220.13;;;9.15;91.14
20368;BME280;10343;52.402;9.796;2023-02-02T07:31:15;101216.81;;;8.91;90.02
20368;BME280;10343;52.402;9.796;2023-02-02T07:33:46;101215.16;;;8.72;91.63
20368;BME280;10343;52.402;9.796;2023-02-02T07:36:15;101219.47;;;8.87;91.52
20368;BME280;10343;52.402;9.796;2023-02-02T07:38:47;101224.66;;;8.99;91.26
20368;BME280;10343;52.402;9.796;2023-02-02T07:41:15;101228.31;;;8.84;91.42
20368;BME280;10343;52.402;9.796;2023-02-02T07:43:45;101218.41;;;9.11;91.64
20368;BME280;10343;52.402;9.796;2023-02-02T07:46:14;101237.78;;;9.13;89.21
20368;BME280;10343;52.402;9.796;2023-02-02T07:48:43;101234.16;;;9.26;90.18
20368;BME280;10343;52.402;9.796;2023-02-02T07:51:13;101240.19;;;9.41;89.04
20368;BME280;10343;52.402;9.796;2023-02-02T07:53:43;101240.16;;;9.44;89.02
20368;BME280;10343;52.402;9.796;2023-02-02T07:56:14;101245.44;;;9.47;88.07
20368;BME280;10343;52.402;9.796;2023-02-02T07:58:43;101242.78;;;9.47;89.19
20368;BME280;10343;52.402;9.796;2023-02-02T08:01:13;101249.88;;;9.42;90.10
20368;BME280;10343;52.402;9.796;2023-02-02T08:03:42;101253.53;;;9.28;88.54
20368;BME280;10343;52.402;9.796;2023-02-02T08:06:13;101251.41;;;9.67;88.43
20368;BME280;10343;52.402;9.796;2023-02-02T08:08:42;101260.31;;;9.60;88.97
20368;BME280;10343;52.402;9.796;2023-02-02T08:11:16;101248.31;;;9.19;90.18
20368;BME280;10343;52.402;9.796;2023-02-02T08:13:47;101256.22;;;9.24;91.82
20368;BME280;10343;52.402;9.796;2023-02-02T08:16:17;101265.09;;;9.18;91.57
20368;BME280;10343;52.402;9.796;2023-02-02T08:18:45;101265.72;;;9.45;91.23
20368;BME280;10343;52.402;9.796;2023-02-02T08:21:14;101266.53;;;9.55;90.57
20368;BME280;10343;52.402;9.796;2023-02-02T08:23:43;101276.13;;;9.66;89.89
20368;BME280;10343;52.402;9.796;2023-02-02T08:26:13;101284.81;;;9.81;89.29
20368;BME280;10343;52.402;9.796;2023-02-02T08:28:44;101288.38;;;9.74;89.41
20368;BME280;10343;52.402;9.796;2023-02-02T08:31:14;101272.16;;;9.14;94.22
20368;BME280;10343;52.402;9.796;2023-02-02T08:33:43;101285.00;;;9.59;91.78
20368;BME280;10343;52.402;9.796;2023-02-02T08:36:12;101278.06;;;9.46;91.30
20368;BME280;10343;52.402;9.796;2023-02-02T08:38:41;101282.56;;;9.38;91.80
20368;BME280;10343;52.402;9.796;2023-02-02T08:41:11;101283.56;;;9.21;92.73
20368;BME280;10343;52.402;9.796;2023-02-02T08:43:40;101289.56;;;9.46;90.94
20368;BME280;10343;52.402;9.796;2023-02-02T08:46:11;101293.81;;;9.61;89.80
20368;BME280;10343;52.402;9.796;2023-02-02T08:48:40;101299.28;;;9.43;89.39
20368;BME280;10343;52.402;9.796;2023-02-02T08:51:10;101299.13;;;9.58;90.03
20368;BME280;10343;52.402;9.796;2023-02-02T08:53:40;101299.13;;;9.60;89.52
20368;BME280;10343;52.402;9.796;2023-02-02T08:56:10;101303.28;;;9.87;87.22
20368;BME280;10343;52.402;9.796;2023-02-02T08:58:43;101315.91;;;9.57;86.98
20368;BME280;10343;52.402;9.796;2023-02-02T09:01:15;101319.25;;;9.79;86.73
20368;BME280;10343;52.402;9.796;2023-02-02T09:03:43;101319.38;;;9.67;86.06
20368;BME280;10343;52.402;9.796;2023-02-02T09:06:13;101324.72;;;9.59;86.81
20368;BME280;10343;52.402;9.796;2023-02-02T09:08:42;101326.56;;;9.49;86.62
20368;BME280;10343;52.402;9.796;2023-02-02T09:11:11;101335.00;;;9.95;84.52
20368;BME280;10343;52.402;9.796;2023-02-02T09:13:40;101337.66;;;9.93;82.57
20368;BME280;10343;52.402;9.796;2023-02-02T09:16:14;101338.69;;;9.74;81.87
20368;BME280;10343;52.402;9.796;2023-02-02T09:18:43;101341.09;;;10.01;81.08
20368;BME280;10343;52.402;9.796;2023-02-02T09:21:13;101344.47;;;10.16;81.11
20368;BME280;10343;52.402;9.796;2023-02-02T09:23:42;101354.97;;;10.25;79.89
20368;BME280;10343;52.402;9.796;2023-02-02T09:26:12;101361.97;;;10.32;78.64
20368;BME280;10343;52.402;9.796;2023-02-02T09:28:43;101362.63;;;9.64;79.02
20368;BME280;10343;52.402;9.796;2023-02-02T09:31:13;101363.25;;;9.93;80.19
20368;BME280;10343;52.402;9.796;2023-02-02T09:33:41;101373.22;;;9.64;78.27
20368;BME280;10343;52.402;9.796;2023-02-02T09:36:11;101377.91;;;10.29;78.85
20368;BME280;10343;52.402;9.796;2023-02-02T09:38:41;101378.63;;;9.52;77.81
20368;BME280;10343;52.402;9.796;2023-02-02T09:41:37;101380.72;;;10.14;79.07
20368;BME280;10343;52.402;9.796;2023-02-02T09:44:17;101387.59;;;9.29;78.99
20368;BME280;10343;52.402;9.796;2023-02-02T09:46:58;101396.00;;;9.84;77.47
20368;BME280;10343;52.402;9.796;2023-02-02T09:49:34;101393.97;;;10.14;77.26
20368;BME280;10343;52.402;9.796;2023-02-02T09:52:09;101388.78;;;10.03;76.51
20368;BME280;10343;52.402;9.796;2023-02-02T09:54:42;101399.53;;;9.83;77.22
20368;BME280;10343;52.402;9.796;2023-02-02T09:57:15;101413.34;;;10.19;74.82
20368;BME280;10343;52.402;9.796;2023-02-02T09:59:46;101399.59;;;9.77;77.94
20368;BME280;10343;52.402;9.796;2023-02-02T10:02:20;101408.22;;;10.00;76.71
20368;BME280;10343;52.402;9.796;2023-02-02T10:04:50;101424.75;;;10.26;76.08
20368;BME280;10343;52.402;9.796;2023-02-02T10:07:24;101414.69;;;10.60;74.92
20368;BME280;10343;52.402;9.796;2023-02-02T10:09:56;101421.28;;;10.19;74.97
20368;BME280;10343;52.402;9.796;2023-02-02T10:12:32;101430.84;;;10.39;73.51
20368;BME280;10343;52.402;9.796;2023-02-02T10:15:10;101422.59;;;9.72;76.33
20368;BME280;10343;52.402;9.796;2023-02-02T10:17:48;101429.22;;;10.22;78.14
20368;BME280;10343;52.402;9.796;2023-02-02T10:20:29;101434.88;;;10.74;73.78
20368;BME280;10343;52.402;9.796;2023-02-02T10:23:08;101448.94;;;9.89;73.42
20368;BME280;10343;52.402;9.796;2023-02-02T10:25:47;101437.78;;;9.46;75.48
20368;BME280;10343;52.402;9.796;2023-02-02T10:28:28;101439.75;;;10.28;76.94
20368;BME280;10343;52.402;9.796;2023-02-02T10:31:01;101441.38;;;10.46;75.95
20368;BME280;10343;52.402;9.796;2023-02-02T10:33:35;101441.47;;;10.39;73.34
20368;BME280;10343;52.402;9.796;2023-02-02T10:36:10;101442.56;;;10.08;73.77
20368;BME280;10343;52.402;9.796;2023-02-02T10:38:47;101443.56;;;9.96;74.65
20368;BME280;10343;52.402;9.796;2023-02-02T10:41:25;101454.75;;;10.29;74.98
20368;BME280;10343;52.402;9.796;2023-02-02T10:44:15;101453.06;;;10.24;74.88
20368;BME280;10343;52.402;9.796;2023-02-02T10:46:47;101461.25;;;9.97;74.96
20368;BME280;10343;52.402;9.796;2023-02-02T10:49:26;101451.22;;;10.29;74.88
20368;BME280;10343;52.402;9.796;2023-02-02T10:51:59;101458.72;;;9.77;75.59
20368;BME280;10343;52.402;9.796;2023-02-02T10:54:43;101454.63;;;10.46;73.72
20368;BME280;10343;52.402;9.796;2023-02-02T10:57:31;101460.78;;;10.50;72.55
20368;BME280;10343;52.402;9.796;2023-02-02T11:00:05;101465.81;;;10.71;70.44
20368;BME280;10343;52.402;9.796;2023-02-02T11:02:38;101469.41;;;10.70;72.29
20368;BME280;10343;52.402;9.796;2023-02-02T11:05:12;101486.19;;;10.71;70.79
20368;BME280;10343;52.402;9.796;2023-02-02T11:07:59;101492.56;;;11.29;68.08
20368;BME280;10343;52.402;9.796;2023-02-02T11:10:27;101493.59;;;11.19;68.85
20368;BME280;10343;52.402;9.796;2023-02-02T11:12:57;101492.00;;;11.02;67.76
20368;BME280;10343;52.402;9.796;2023-02-02T11:15:29;101491.63;;;11.33;68.95
20368;BME280;10343;52.402;9.796;2023-02-02T11:18:11;101502.53;;;11.12;68.43
20368;BME280;10343;52.402;9.796;2023-02-02T11:20:42;101497.59;;;10.78;68.54
20368;BME280;10343;52.402;9.796;2023-02-02T11:23:17;101497.06;;;11.24;68.63
20368;BME280;10343;52.402;9.796;2023-02-02T11:25:56;101483.47;;;11.49;67.38
20368;BME280;10343;52.402;9.796;2023-02-02T11:28:25;101501.28;;;11.37;67.43
20368;BME280;10343;52.402;9.796;2023-02-02T11:30:56;101497.28;;;11.05;67.72
20368;BME280;10343;52.402;9.796;2023-02-02T11:33:28;101498.94;;;11.16;67.58
20368;BME280;10343;52.402;9.796;2023-02-02T11:36:00;101504.25;;;11.16;68.77
20368;BME280;10343;52.402;9.796;2023-02-02T11:38:28;101509.41;;;10.47;69.52
20368;BME280;10343;52.402;9.796;2023-02-02T11:40:58;101514.19;;;10.00;71.98
20368;BME280;10343;52.402;9.796;2023-02-02T11:43:30;101506.50;;;10.72;71.75
20368;BME280;10343;52.402;9.796;2023-02-02T11:46:01;101508.31;;;10.68;70.49
20368;BME280;10343;52.402;9.796;2023-02-02T11:48:33;101506.53;;;10.70;70.06
20368;BME280;10343;52.402;9.796;2023-02-02T11:51:05;101504.22;;;10.33;71.98
20368;BME280;10343;52.402;9.796;2023-02-02T11:53:35;101504.34;;;10.19;73.59
20368;BME280;10343;52.402;9.796;2023-02-02T11:56:09;101508.00;;;10.03;71.77
20368;BME280;10343;52.402;9.796;2023-02-02T11:58:45;101493.88;;;10.01;73.34
20368;BME280;10343;52.402;9.796;2023-02-02T12:01:24;101488.91;;;10.63;72.41
20368;BME280;10343;52.402;9.796;2023-02-02T12:03:53;101489.19;;;10.32;73.16
20368;BME280;10343;52.402;9.796;2023-02-02T12:06:24;101496.31;;;10.24;72.32
20368;BME280;10343;52.402;9.796;2023-02-02T12:08:56;101501.56;;;10.33;72.56
20368;BME280;10343;52.402;9.796;2023-02-02T12:11:41;101502.41;;;10.40;70.76
20368;BME280;10343;52.402;9.796;2023-02-02T12:14:21;101499.41;;;10.73;71.09
20368;BME280;10343;52.402;9.796;2023-02-02T12:16:59;101501.41;;;10.52;71.70
20368;BME280;10343;52.402;9.796;2023-02-02T12:22:41;101503.50;;;11.03;70.44
20368;BME280;10343;52.402;9.796;2023-02-02T12:25:31;101506.97;;;11.08;69.19
20368;BME280;10343;52.402;9.796;2023-02-02T12:28:08;101507.84;;;11.12;68.64
20368;BME280;10343;52.402;9.796;2023-02-02T12:30:46;101509.97;;;10.79;69.53
20368;BME280;10343;52.402;9.796;2023-02-02T12:33:22;101505.00;;;10.46;70.98
20368;BME280;10343;52.402;9.796;2023-02-02T12:39:08;101511.81;;;10.72;70.74
20368;BME280;10343;52.402;9.796;2023-02-02T12:44:44;101511.03;;;10.59;72.04
20368;BME280;10343;52.402;9.796;2023-02-02T12:47:19;101515.34;;;10.73;70.85
20368;BME280;10343;52.402;9.796;2023-02-02T12:50:00;101514.19;;;10.98;69.82
20368;BME280;10343;52.402;9.796;2023-02-02T12:52:40;101512.81;;;10.59;70.75
20368;BME280;10343;52.402;9.796;2023-02-02T12:55:18;101510.19;;;10.57;71.92
20368;BME280;10343;52.402;9.796;2023-02-02T12:57:55;101510.78;;;10.87;70.47
20368;BME280;10343;52.402;9.796;2023-02-02T13:00:44;101523.97;;;10.93;70.74
20368;BME280;10343;52.402;9.796;2023-02-02T13:03:27;101517.03;;;10.78;69.33
20368;BME280;10343;52.402;9.796;2023-02-02T13:06:26;101511.59;;;10.91;71.03
20368;BME280;10343;52.402;9.796;2023-02-02T13:09:03;101510.03;;;10.73;71.43
20368;BME280;10343;52.402;9.796;2023-02-02T13:11:39;101513.53;;;10.78;70.19
20368;BME280;10343;52.402;9.796;2023-02-02T13:14:15;101511.38;;;11.11;69.53
20368;BME280;10343;52.402;9.796;2023-02-02T13:16:46;101516.94;;;10.89;69.25
20368;BME280;10343;52.402;9.796;2023-02-02T13:19:23;101522.13;;;10.98;70.45
20368;BME280;10343;52.402;9.796;2023-02-02T13:22:07;101522.59;;;10.55;69.19
20368;BME280;10343;52.402;9.796;2023-02-02T13:24:39;101523.50;;;10.52;71.75
20368;BME280;10343;52.402;9.796;2023-02-02T13:27:13;101516.25;;;10.70;71.64
20368;BME280;10343;52.402;9.796;2023-02-02T13:29:45;101513.16;;;11.12;69.07
20368;BME280;10343;52.402;9.796;2023-02-02T13:32:20;101514.28;;;10.87;69.21
20368;BME280;10343;52.402;9.796;2023-02-02T13:34:55;101521.38;;;10.88;68.61
20368;BME280;10343;52.402;9.796;2023-02-02T13:37:29;101517.63;;;11.07;68.00
20368;BME280;10343;52.402;9.796;2023-02-02T13:40:04;101522.50;;;10.64;70.78
20368;BME280;10343;52.402;9.796;2023-02-02T13:42:37;101529.25;;;10.93;69.54
20368;BME280;10343;52.402;9.796;2023-02-02T13:45:24;101526.41;;;10.20;71.68